Portada
METAR-TAF:

METAR-TAF

Aeroports :

Orsk, Rússia

latitud: 51-04-18N, longitud: 058-35-48E, altitud: 277 m

Observació

L'informe es va fer fa 56 minuts, a les 01:00 UTC
Vent 4 kt del Nord/Nord-Oest
Temperatura 4°C
Humitat 93%
Pressió 1032 hPa
Visibilitat: 1200 m
boirina

METAR: UWOR 010100Z 33002MPS 3700 1200NE BR NSC 04/03 Q1032 R07/CLRD65 NOSIG RMK QFE749/0999

Hora: 06:56 (01:56 UTC)

Pronòstic

L'informe es va fer fa 3 hores i 11 minuts, a les 22:45 UTC
Pronòstic vàlid del 01 a les 00 UTC al 01 a les 09 UTC
Vent 6 kt del Nord-Est amb ràfegues de 16 kt
Visibilitat 10 km o més
Cel ennuvolat a una alçada de 4000 ft
Temporalment
l' 01 a les 00 UTC al 01 a les 04 UTC
Visibilitat: 0200 m
Cel ennuvolat a una alçada de 300 ft
boira
Temporalment
l' 01 a les 04 UTC al 01 a les 09 UTC
Vent 10 kt del Est/Nord-Est amb ràfegues de 21 kt

TAF: UWOR 302245Z 0100/0109 05003G08MPS 9999 BKN040 TX12/0106Z TN02/0102Z TEMPO 0100/0104 0200 FG BKN003 TEMPO 0104/0109 07005G11MPS

Observacions i pronòstics meteorològics de més de 4000 aeroports (METAR i TAF).

Les estacions disponibles són els punts grocs i vermells al mapa.

Posi el ratolí al punt desitjat per veure el nom de l'estació.

Feu clic per veure les observacions i els pronòstics meteorològics.

Per canviar el mapa: feu clic els botons verds amb una creu de color negre per apropar; al botó verd amb un guió per allunyar la imatge; o en les fletxes verdes per a mapes adjacents.


METAR-TAF: